Tiempo atmosférico en la estación meteorológica de Alconchel, Badajoz (170 m.)



Fecha
DESCASC
Temp. máxima en grados centígrados (hora)
DESCASC
Temp. mínima en grados centígrados (hora)
DESCASC
Temp. media en grados centígrados
DESCASC
Racha de viento máxima en m/sg (hora)
DESCASC
Velocidad máxima media en intervalos de 10 minutos(hora)
DESCASC
Precipitaciones diarias en mm
DESCASC
Precipitaciones de 00:00 a 06:00 en mm
DESCASC
Precipitaciones de 06:00 a 12:00 en mm
DESCASC
Precipitaciones de 12:00 a 18:00 en mm
DESCASC
Precipitaciones de 18:00 a 24:00 en mm
DESCASC
05-04-2020 18.7 (14:50) 10.8 (04:40) 14.8 15.28 (14:30) 11.11 (14:40) 11 0 0 0.2 10.8
04-04-2020 17 (13:40) 10.2 (05:10) 13.6 8.06 (14:50) 6.11 (15:00) 0 0 0 0 0
03-04-2020 21 (18:00) 6.3 (08:20) 13.7 4.17 (16:10) 3.06 (16:20) 0 0 0 0 0
02-04-2020 18.1 (19:00) 6.4 (00:00) 12.3 7.5 (15:50) 4.17 (11:30) 0.2 0.2 0 0 0
01-04-2020 13.8 (16:00) 4.3 (00:00) 9.1 18.33 (14:30) 7.78 (14:30) 10.4 0 0.8 4.6 5
31-03-2020 13.5 (17:50) 6.7 (00:00) 10.1 10.56 (16:30) 6.39 (05:20) 9.6 8.6 1 0 0
30-03-2020 15.3 (16:40) 7.7 (00:00) 11.5 8.06 (18:00) 5.83 (17:20) 0 0 0 0 0
29-03-2020 18.8 (16:00) 8.1 (00:00) 13.4 5.28 (14:00) 3.61 (16:10) 0 0 0 0 0
28-03-2020 17.9 (16:10) 4 (00:00) 10.9 6.11 (13:40) 3.89 (13:20) 0 0 0 0 0
27-03-2020 15.9 (15:20) 6.2 (00:00) 11 8.06 (16:20) 5.28 (16:20) 0 0 0 0 0
26-03-2020 19.6 (16:20) 7.2 (00:00) 13.4 11.11 (16:40) 7.5 (17:30) 0 0 0 0 0
25-03-2020 20.7 (17:30) 9.4 (00:00) 15.1 6.11 (01:40) 4.44 (03:40) 0 0 0 0 0
24-03-2020 18.9 (15:20) 8 (00:00) 13.4 13.33 (11:40) 7.78 (14:30) 0 0 0 0 0
23-03-2020 17.7 (15:40) 7.6 (00:00) 12.7 11.11 (16:30) 7.22 (16:40) 0.2 0 0 0 0.2
22-03-2020 16.7 (16:10) 7.6 (06:40) 12.2 8.33 (13:00) 4.72 (13:20) 0 0 0 0 0
21-03-2020 15.7 (14:20) 8.7 (00:00) 12.2 8.89 (13:50) 6.11 (13:50) 0.8 0.2 0 0.4 0.2
20-03-2020 15.1 (13:30) 9.9 (00:00) 12.5 9.44 (16:50) 6.39 (16:50) 30.4 0 0 7.4 23
19-03-2020 21.1 (17:30) 8.8 (00:00) 15 8.61 (08:40) 6.11 (08:50) 0 0 0 0 0
18-03-2020 22.2 (15:30) 10.2 (00:00) 16.2 10.83 (11:40) 7.22 (12:10) 0 0 0 0 0
17-03-2020 18.1 (17:20) 5.6 (00:00) 11.9 12.78 (13:50) 8.06 (13:00) 0.2 0 0.2 0 0
16-03-2020 14.7 (14:00) 5.4 (00:00) 10 12.5 (13:00) 8.06 (11:20) 4 0 0 0 4
15-03-2020 20.8 (15:00) 8.5 (00:00) 14.6 14.17 (20:40) 9.72 (21:20) 0 0 0 0 0
14-03-2020 23.1 (17:10) 8.1 (00:00) 15.6 3.89 (13:50) 2.78 (23:30) 0 0 0 0 0
13-03-2020 17.2 (18:40) 9.4 (04:50) 13.3 4.44 (15:30) 2.78 (14:50) 0 0 0 0 0
12-03-2020 22.6 (18:00) 10.9 (00:00) 16.8 7.22 (13:20) 5.28 (13:40) 0 0 0 0 0
11-03-2020 23.4 (16:30) 8.9 (00:00) 16.1 7.22 (17:40) 5 (17:50) 0 0 0 0 0
10-03-2020 25.6 (16:50) 7.2 (00:00) 16.4 5.83 (15:00) 3.89 (05:20) 0 0 0 0 0

Gráficas

Temp. máximas Temp. mínimas Temp. medias Precipitaciones Rachas de viento máximas Velocidades máximas media en intervalos de 10 minutos

Datos horarios

Fecha y hora oficial Temperatura (ºC) Velocidad del viento (km/h) Dirección del viento Racha (km/h) Dirección de racha Precipitación (mm) Presión (hPa) Tendencia (hPa) Humedad (%)
2020-04-08 23:00:00 -- -- -- -- -- -- -- -- --
2020-04-08 22:00:00 18.2 5 Noroeste 10 Noroeste 0 -- -- 84
2020-04-08 21:00:00 18.9 5 Noroeste 15 Noroeste 0 -- -- 83
2020-04-08 20:00:00 20.1 5 Sudoeste 10 Sudoeste 0 -- -- 68
2020-04-08 19:00:00 20.6 8 Sudoeste 12 Sudoeste 0 -- -- 68
2020-04-08 18:00:00 21.6 6 Sudoeste 12 Sudoeste 0 -- -- 66
2020-04-08 17:00:00 21.7 7 Sudoeste 15 Sudoeste 0 -- -- 65
2020-04-08 16:00:00 20.6 10 Oeste 14 Sudoeste 0 -- -- 70
2020-04-08 15:00:00 19.9 7 Oeste 11 Oeste 0 -- -- 76
2020-04-08 14:00:00 19.2 6 Oeste 9 Oeste 0 -- -- 83
2020-04-08 13:00:00 19 6 Oeste 10 Noroeste 0 -- -- 85
2020-04-08 12:00:00 16 8 Norte 13 Norte 0 -- -- 95
2020-04-08 11:00:00 14.4 5 Norte 10 Norte 0 -- -- 99
2020-04-08 10:00:00 12.7 3 Norte 6 Nordeste 0 -- -- 99
2020-04-08 09:00:00 11.6 4 Nordeste 8 Nordeste 0 -- -- 100
2020-04-08 08:00:00 11 4 Nordeste 6 Nordeste 0 -- -- 99
2020-04-08 07:00:00 11.6 0 Calma 6 Norte 0 -- -- 98
2020-04-08 06:00:00 11.7 0 Calma 5 Este 0 -- -- 97
2020-04-08 05:00:00 12.2 3 Este 9 Este 0 -- -- 96
2020-04-08 04:00:00 13.1 8 Este 12 Este 0 -- -- 96
2020-04-08 03:00:00 13.3 8 Este 10 Este 0 -- -- 96
2020-04-08 02:00:00 14 6 Sudeste 8 Sudeste 0 -- -- 95
2020-04-08 01:00:00 14.9 6 Este 8 Este 0 -- -- 92
2020-04-08 00:00:00 15.3 0 Calma 12 Oeste 0 -- -- 92
2020-04-07 23:00:00 15.8 6 Sur 11 Sur 0 -- -- 89
2020-04-07 22:00:00 17.1 7 Sur 13 Sur 0 -- -- 83
2020-04-07 21:00:00 18.2 7 Sur 14 Sur 0 -- -- 79
2020-04-07 20:00:00 19.2 10 Sudoeste 19 Sudoeste 0 -- -- 75
2020-04-07 19:00:00 20.6 12 Sudoeste 21 Sudoeste 0 -- -- 69
2020-04-07 18:00:00 20.9 13 Sudoeste 24 Sur 0 -- -- 69
2020-04-07 17:00:00 20.2 15 Sur 23 Sudoeste 0 -- -- 74
2020-04-07 16:00:00 19.7 14 Sur 30 Sudoeste 0 -- -- 75
2020-04-07 15:00:00 18.8 19 Sudoeste 29 Sudoeste 0 -- -- 77
2020-04-07 14:00:00 17.8 19 Sur 31 Sudoeste 0 -- -- 84
2020-04-07 13:00:00 16.5 22 Sudoeste 31 Sur 0 -- -- 88
2020-04-07 12:00:00 15.7 18 Sur 30 Sur 0 -- -- 95
2020-04-07 11:00:00 14.6 10 Sur 17 Sur 0.2 -- -- 98
2020-04-07 10:00:00 14.2 9 Sur 14 Sur 0.4 -- -- 98
2020-04-07 09:00:00 14 6 Sur 14 Sur 0.6 -- -- 98
2020-04-07 08:00:00 14.1 3 Sur 11 Sur 0.4 -- -- 98
2020-04-07 07:00:00 14.3 6 Sudoeste 15 Sudoeste 0.6 -- -- 97
2020-04-07 06:00:00 14.4 11 Sur 18 Sur 0.2 -- -- 96
2020-04-07 05:00:00 14.3 5 Sudoeste 22 Sur 0.4 -- -- 97
2020-04-07 04:00:00 14.2 8 Sudeste 15 Sudeste 3 -- -- 96
2020-04-07 03:00:00 14.8 9 Sur 22 Sur 0.2 -- -- 91
2020-04-07 02:00:00 15.1 14 Sur 22 Sur 0 -- -- 90
2020-04-07 01:00:00 14.8 15 Sur 22 Sur 0 -- -- 91
2020-04-07 00:00:00 15 13 Sur 21 Sur 0 -- -- 91
2020-04-06 23:00:00 16.2 14 Sur 30 Sur 0 -- -- 87
2020-04-06 22:00:00 16.7 19 Sur 32 Sur 0 -- -- 85
2020-04-06 21:00:00 16.7 13 Sur 21 Sur 0.4 -- -- 86
2020-04-06 20:00:00 17.1 15 Sur 31 Sur 0 -- -- 87
2020-04-06 19:00:00 18 20 Sur 33 Sur 0 -- -- 81
2020-04-06 18:00:00 18.4 22 Sur 37 Sur 0 -- -- 79
2020-04-06 17:00:00 19.1 24 Sur 38 Sur 0 -- -- 76
2020-04-06 16:00:00 19.1 22 Sur 35 Sur 0 -- -- 78
2020-04-06 15:00:00 19.8 23 Sur 34 Sur 0 -- -- 73
2020-04-06 14:00:00 18.3 19 Sur 30 Sur 0 -- -- 76
2020-04-06 13:00:00 17.9 18 Sudoeste 25 Sur 0 -- -- 80
2020-04-06 12:00:00 15.7 4 Oeste 10 Oeste 0 -- -- 94
2020-04-06 11:00:00 14.9 4 Sudoeste 8 Oeste 0 -- -- 98
2020-04-06 10:00:00 13.7 0 Calma 4 Sudeste 0 -- -- 100
2020-04-06 09:00:00 12.7 0 Calma 5 Sudeste 0 -- -- 100
2020-04-06 08:00:00 12.4 0 Calma 5 Este 0 -- -- 99
2020-04-06 07:00:00 12.7 2 Sur 6 Sudeste 0 -- -- 99
2020-04-06 06:00:00 12.6 0 Calma 5 Noroeste 0 -- -- 98
2020-04-06 05:00:00 13.1 3 Oeste 5 Oeste 0 -- -- 98
2020-04-06 04:00:00 13.4 3 Noroeste 12 Sudoeste 0 -- -- 97
2020-04-06 03:00:00 14 10 Sudoeste 13 Sudoeste 0 -- -- 97
2020-04-06 02:00:00 14.2 6 Sudoeste 14 Oeste 0 -- -- 97
2020-04-06 01:00:00 14.4 12 Oeste 21 Oeste 0 -- -- 97
2020-04-06 00:00:00 14.8 10 Oeste 31 Oeste 0 -- -- 97
2020-04-05 23:00:00 15.5 28 Sudoeste 48 Sudoeste 7 -- -- 98
2020-04-05 22:00:00 15.5 20 Sur 32 Sur 3.6 -- -- 96
2020-04-05 21:00:00 15.9 26 Sur 44 Sur 0.2 -- -- 93
2020-04-05 20:00:00 16.7 28 Sur 49 Sur 0 -- -- 87
2020-04-05 19:00:00 16.7 35 Sur 50 Sur 0 -- -- 87
2020-04-05 18:00:00 17.6 36 Sur 53 Sur 0 -- -- 81
2020-04-05 17:00:00 16.4 29 Sur 54 Sur 0.2 -- -- 90
2020-04-05 16:00:00 18.4 36 Sur 53 Sur 0 -- -- 75
2020-04-05 15:00:00 18.4 37 Sur 55 Sur 0 -- -- 73
2020-04-05 14:00:00 17.4 35 Sur 49 Sur 0 -- -- 74
2020-04-05 13:00:00 17.7 31 Sur 48 Sur 0 -- -- 73
2020-04-05 12:00:00 16.6 31 Sur 46 Sur 0 -- -- 75
2020-04-05 11:00:00 15.4 27 Sur 40 Sur 0 -- -- 79
2020-04-05 10:00:00 14.5 23 Sur 38 Sur 0 -- -- 82
2020-04-05 09:00:00 13.3 13 Sur 27 Sur 0 -- -- 86
2020-04-05 08:00:00 13.1 19 Sur 33 Sur 0 -- -- 87
2020-04-05 07:00:00 12.6 20 Sur 31 Sur 0 -- -- 90
2020-04-05 06:00:00 12.4 18 Sur 26 Sur 0 -- -- 89
2020-04-05 05:00:00 10.8 0 Calma 14 Sur 0 -- -- 93
2020-04-05 04:00:00 11.4 10 Sur 15 Sudeste 0 -- -- 92
2020-04-05 03:00:00 11.7 5 Sur 12 Sur 0 -- -- 92
2020-04-05 02:00:00 12.2 8 Sur 12 Sur 0 -- -- 92
2020-04-05 01:00:00 12.2 5 Sur 10 Sur 0 -- -- 91
2020-04-05 00:00:00 12.9 7 Sur 19 Sur 0 -- -- 88
2020-04-04 23:00:00 13.6 9 Sur 13 Sur 0 -- -- 84
2020-04-04 22:00:00 14.5 7 Sudeste 13 Sur 0 -- -- 81
2020-04-04 21:00:00 15.7 7 Sur 16 Sur 0 -- -- 73
2020-04-04 20:00:00 16.3 11 Sur 19 Sur 0 -- -- 68
2020-04-04 19:00:00 16.5 14 Sur 23 Sur 0 -- -- 66
2020-04-04 18:00:00 16.3 10 Sudeste 19 Sur 0 -- -- 69
2020-04-04 17:00:00 16.5 12 Sur 24 Sur 0 -- -- 66
2020-04-04 16:00:00 16.2 17 Sur 29 Sudoeste 0 -- -- 63
2020-04-04 15:00:00 16.8 22 Sudoeste 29 Sudoeste 0 -- -- 58
2020-04-04 14:00:00 16.7 17 Sur 26 Sur 0 -- -- 58
2020-04-04 13:00:00 16.2 16 Sur 29 Sur 0 -- -- 57
2020-04-04 12:00:00 15.2 13 Sudeste 22 Sudeste 0 -- -- 59
2020-04-04 11:00:00 14 9 Sudeste 21 Sudeste 0 -- -- 63
2020-04-04 10:00:00 12.8 11 Sudeste 20 Sudeste 0 -- -- 66
2020-04-04 09:00:00 11.2 8 Sudeste 18 Sudeste 0 -- -- 70
2020-04-04 08:00:00 10.8 11 Sudeste 23 Sudeste 0 -- -- 72
2020-04-04 07:00:00 10.8 13 Sudeste 20 Este 0 -- -- 76
2020-04-04 06:00:00 11.2 10 Sudeste 23 Sudeste 0 -- -- 77
2020-04-04 05:00:00 10.4 5 Este 9 Sudeste 0 -- -- 84
2020-04-04 04:00:00 11.5 8 Sudeste 9 Sudeste 0 -- -- 79
2020-04-04 03:00:00 12.5 3 Sudeste 11 Sudeste 0 -- -- 81
2020-04-04 02:00:00 13.1 6 Este 9 Sudeste 0 -- -- 77
2020-04-04 01:00:00 13.9 0 Calma 11 Sudeste 0 -- -- 75
2020-04-04 00:00:00 13.8 8 Sudeste 10 Este 0 -- -- 78
2020-04-03 23:00:00 15.1 2 Oeste 10 Este 0 -- -- 70
2020-04-03 22:00:00 16.5 8 Nordeste 10 Nordeste 0 -- -- 60
2020-04-03 21:00:00 18.1 3 Norte 5 Oeste 0 -- -- 56
2020-04-03 20:00:00 20.2 5 Sudoeste 12 Oeste 0 -- -- 53
2020-04-03 19:00:00 20.8 9 Oeste 15 Oeste 0 -- -- 54
2020-04-03 18:00:00 21 7 Oeste 14 Oeste 0 -- -- 55
2020-04-03 17:00:00 20.3 9 Oeste 15 Sudoeste 0 -- -- 50
2020-04-03 16:00:00 20 9 Oeste 14 Oeste 0 -- -- 57
2020-04-03 15:00:00 18.8 7 Oeste 12 Oeste 0 -- -- 53
2020-04-03 14:00:00 17.6 7 Oeste 12 Oeste 0 -- -- 62
2020-04-03 13:00:00 16.1 6 Oeste 12 Oeste 0 -- -- 75
2020-04-03 12:00:00 14.1 6 Oeste 10 Oeste 0 -- -- 83
2020-04-03 11:00:00 11.8 4 Sur 7 Sudoeste 0 -- -- 86
2020-04-03 10:00:00 10 3 Sur 6 Este 0 -- -- 90
2020-04-03 09:00:00 7.2 4 Sudeste 7 Este 0 -- -- 97
2020-04-03 08:00:00 6.5 5 Sudeste 9 Sudeste 0 -- -- 96
2020-04-03 07:00:00 6.8 5 Sudeste 9 Este 0 -- -- 96
2020-04-03 06:00:00 7.3 8 Este 10 Este 0 -- -- 96
2020-04-03 05:00:00 7.6 6 Sudeste 10 Sudeste 0 -- -- 95
2020-04-03 04:00:00 8.7 7 Sudeste 10 Sudeste 0 -- -- 93
2020-04-03 03:00:00 9 4 Sur 8 Sur 0 -- -- 91
2020-04-03 02:00:00 10.3 0 Calma 5 Sur 0 -- -- 90
2020-04-03 01:00:00 11 0 Calma 6 Noroeste 0 -- -- 86
2020-04-03 00:00:00 12.4 4 Norte 15 Noroeste 0 -- -- 77
2020-04-02 23:00:00 13.4 3 Sur 8 Sudoeste 0 -- -- 79
2020-04-02 22:00:00 14.1 3 Oeste 8 Oeste 0 -- -- 74
2020-04-02 21:00:00 15.3 5 Sudoeste 14 Oeste 0 -- -- 68
2020-04-02 20:00:00 17.1 10 Oeste 15 Oeste 0 -- -- 59
2020-04-02 19:00:00 18.1 8 Oeste 12 Oeste 0 -- -- 53
2020-04-02 18:00:00 17.4 3 Nordeste 19 Nordeste 0 -- -- 54
2020-04-02 17:00:00 17.3 10 Nordeste 22 Este 0 -- -- 62
2020-04-02 16:00:00 16.4 10 Este 27 Norte 0 -- -- 60
2020-04-02 15:00:00 15.7 11 Nordeste 27 Noroeste 0 -- -- 62
2020-04-02 14:00:00 14.3 13 Norte 25 Este 0 -- -- 68
2020-04-02 13:00:00 13.5 14 Nordeste 23 Este 0 -- -- 70
2020-04-02 12:00:00 11.8 9 Norte 24 Norte 0 -- -- 83
2020-04-02 11:00:00 9.3 10 Nordeste 18 Nordeste 0 -- -- 94
2020-04-02 10:00:00 7.6 6 Norte 18 Norte 0 -- -- 98
2020-04-02 09:00:00 6.9 9 Nordeste 15 Norte 0 -- -- 99
2020-04-02 08:00:00 6.4 8 Norte 15 Nordeste 0 -- -- 99
2020-04-02 07:00:00 7.1 8 Nordeste 14 Nordeste 0 -- -- 99
2020-04-02 06:00:00 7.5 8 Norte 18 Norte 0 -- -- 99
2020-04-02 05:00:00 8.1 6 Norte 11 Norte 0 -- -- 99
2020-04-02 04:00:00 7.6 0 Calma 8 Nordeste 0 -- -- 98
2020-04-02 03:00:00 8.1 4 Nordeste 8 Nordeste 0 -- -- 96
2020-04-02 02:00:00 8.8 0 Calma 8 Oeste 0 -- -- 94
2020-04-02 01:00:00 9.5 2 Noroeste 13 Oeste 0.2 -- -- 96
2020-04-02 00:00:00 10.1 7 Sudoeste 17 Sudoeste 0.2 -- -- 96
2020-04-01 23:00:00 9.2 0 Calma 12 Sudeste 0 -- -- 97
2020-04-01 22:00:00 9.3 8 Este 11 Este 0 -- -- 96
2020-04-01 21:00:00 9.8 4 Sudeste 29 Oeste 3.4 -- -- 95
2020-04-01 20:00:00 10.7 11 Sudoeste 36 Sur 1.4 -- -- 90
2020-04-01 19:00:00 12 17 Sur 34 Sur 0 -- -- 84
2020-04-01 18:00:00 12 21 Sur 35 Sur 0 -- -- 81
2020-04-01 17:00:00 11.2 22 Sur 49 Sudoeste 1.8 -- -- 82
2020-04-01 16:00:00 13.8 22 Sur 33 Sur 0 -- -- 70
2020-04-01 15:00:00 10.7 18 Sur 66 Sudoeste 2.8 -- -- 89
2020-04-01 14:00:00 12.9 14 Sur 27 Sur 0 -- -- 71
2020-04-01 13:00:00 10.9 14 Sur 23 Sur 0 -- -- 81
2020-04-01 12:00:00 9 11 Sur 19 Sudoeste 0.8 -- -- 89
2020-04-01 11:00:00 9.4 12 Sur 18 Sur 0 -- -- 83
2020-04-01 10:00:00 7.3 3 Sur 13 Sur 0 -- -- 88
2020-04-01 09:00:00 5.8 4 Sudeste 13 Este 0 -- -- 91
2020-04-01 08:00:00 4.5 2 Este 9 Este 0 -- -- 95
2020-04-01 07:00:00 4.3 9 Este 11 Este 0 -- -- 93
2020-04-01 06:00:00 4.4 9 Sudeste 12 Sudeste 0 -- -- 94
2020-04-01 05:00:00 4.8 5 Sudeste 10 Sudeste 0 -- -- 93
2020-04-01 04:00:00 5.3 8 Sudeste 10 Sudeste 0 -- -- 92
2020-04-01 03:00:00 5.9 6 Sudeste 8 Sudeste 0 -- -- 89
2020-04-01 02:00:00 7.2 3 Sur 11 Oeste 0 -- -- 85
2020-04-01 01:00:00 8.1 10 Oeste 21 Oeste 0 -- -- 81
2020-04-01 00:00:00 8.5 10 Oeste 22 Oeste 0 -- -- 76
2020-03-31 23:00:00 9.2 13 Oeste 23 Oeste 0 -- -- 73
2020-03-31 22:00:00 9.7 9 Oeste 14 Oeste 0 -- -- 78
2020-03-31 21:00:00 9.8 7 Oeste 20 Noroeste 0 -- -- 76
2020-03-31 20:00:00 11.2 13 Noroeste 29 Oeste 0 -- -- 72
2020-03-31 19:00:00 10.7 22 Oeste 35 Oeste 0 -- -- 81
2020-03-31 18:00:00 13 19 Oeste 31 Oeste 0 -- -- 76
2020-03-31 17:00:00 12.8 20 Oeste 38 Oeste 0 -- -- 81
2020-03-31 16:00:00 12.9 18 Oeste 32 Oeste 0 -- -- 82
2020-03-31 15:00:00 12.9 12 Oeste 18 Oeste 0 -- -- 86
2020-03-31 14:00:00 12.5 9 Noroeste 17 Oeste 0 -- -- 87
2020-03-31 13:00:00 10.7 3 Norte 13 Norte 0 -- -- 94
2020-03-31 12:00:00 8.5 8 Nordeste 14 Nordeste 0 -- -- 99
2020-03-31 11:00:00 7.7 6 Nordeste 15 Norte 0 -- -- 99
2020-03-31 10:00:00 7.2 8 Nordeste 21 Nordeste 0 -- -- 98
2020-03-31 09:00:00 6.8 12 Nordeste 24 Nordeste 0 -- -- 98
2020-03-31 08:00:00 6.7 15 Nordeste 26 Nordeste 0.2 -- -- 98
2020-03-31 07:00:00 7.2 18 Nordeste 30 Nordeste 0.8 -- -- 98
2020-03-31 06:00:00 7.4 14 Nordeste 33 Nordeste 1.6 -- -- 98
2020-03-31 05:00:00 7.7 19 Nordeste 31 Nordeste 1.6 -- -- 98
2020-03-31 04:00:00 8.3 17 Nordeste 30 Nordeste 1.8 -- -- 98
2020-03-31 03:00:00 9.7 13 Nordeste 23 Nordeste 0.6 -- -- 97
2020-03-31 02:00:00 9.7 13 Nordeste 20 Nordeste 0.2 -- -- 98
2020-03-31 01:00:00 9.1 11 Nordeste 20 Nordeste 2.8 -- -- 97
2020-03-31 00:00:00 9.2 14 Nordeste 25 Nordeste 0 -- -- 94
2020-03-30 23:00:00 9.4 16 Nordeste 23 Nordeste 0 -- -- 92
2020-03-30 22:00:00 10.7 10 Nordeste 13 Nordeste 0 -- -- 85
2020-03-30 21:00:00 11.7 7 Este 14 Sur 0 -- -- 81
2020-03-30 20:00:00 12.4 10 Sur 20 Sur 0 -- -- 78
2020-03-30 19:00:00 13 12 Sur 26 Sur 0 -- -- 77
2020-03-30 18:00:00 13.6 19 Sur 29 Sur 0 -- -- 74
2020-03-30 17:00:00 14.8 19 Sur 27 Sur 0 -- -- 71
2020-03-30 16:00:00 15 11 Sudoeste 18 Sudoeste 0 -- -- 73
2020-03-30 15:00:00 14.3 9 Sudoeste 19 Sudoeste 0 -- -- 78
2020-03-30 14:00:00 14.5 12 Sudoeste 18 Oeste 0 -- -- 76
2020-03-30 13:00:00 14.3 11 Sudoeste 16 Sudoeste 0 -- -- 76
2020-03-30 12:00:00 13.1 3 Sur 6 Sur 0 -- -- 84
2020-03-30 11:00:00 11.2 5 Sudeste 7 Este 0 -- -- 90
2020-03-30 10:00:00 9.8 2 Sur 7 Sudeste 0 -- -- 93
2020-03-30 09:00:00 8.5 0 Calma 10 Este 0 -- -- 94
2020-03-30 08:00:00 8.2 5 Este 7 Este 0 -- -- 94
2020-03-30 07:00:00 7.7 3 Este 6 Este 0 -- -- 94
2020-03-30 06:00:00 8.2 5 Este 6 Este 0 -- -- 92
2020-03-30 05:00:00 8.4 6 Sudeste 7 Sudeste 0 -- -- 92
2020-03-30 04:00:00 8.4 5 Sudeste 12 Sudeste 0 -- -- 92
2020-03-30 03:00:00 9 6 Este 9 Nordeste 0 -- -- 91
2020-03-30 02:00:00 9.8 8 Nordeste 11 Noroeste 0 -- -- 88
2020-03-30 01:00:00 11.2 4 Norte 12 Oeste 0 -- -- 84
2020-03-30 00:00:00 13 6 Oeste 12 Oeste 0 -- -- 80
2020-03-29 23:00:00 14 4 Sudeste 9 Oeste 0 -- -- 75
2020-03-29 22:00:00 15.3 2 Sudeste 7 Sur 0 -- -- 68
2020-03-29 21:00:00 16 3 Norte 11 Noroeste 0 -- -- 64
2020-03-29 20:00:00 18.2 9 Oeste 16 Oeste 0 -- -- 59
2020-03-29 19:00:00 18.1 9 Sudoeste 17 Oeste 0 -- -- 57
2020-03-29 18:00:00 18.4 11 Sudoeste 16 Sudoeste 0 -- -- 55
2020-03-29 17:00:00 18.5 11 Sudoeste 17 Sudoeste 0 -- -- 51
2020-03-29 16:00:00 18.8 13 Sudoeste 18 Sudoeste 0 -- -- 53
2020-03-29 15:00:00 18.5 11 Sudoeste 16 Oeste 0 -- -- 59
2020-03-29 14:00:00 17.2 13 Sudoeste 19 Sudoeste 0 -- -- 62
2020-03-29 13:00:00 16.8 8 Sudoeste 14 Sudoeste 0 -- -- 65
2020-03-29 12:00:00 14.9 9 Oeste 14 Noroeste 0 -- -- 77
2020-03-29 11:00:00 13 4 Sudoeste 8 Sur 0 -- -- 82
2020-03-29 10:00:00 10.9 3 Sur 8 Sudeste 0 -- -- 85
2020-03-29 09:00:00 8.4 6 Sudeste 10 Sur 0 -- -- 93
2020-03-29 08:00:00 8.3 7 Sudeste 10 Sudeste 0 -- -- 91
2020-03-29 07:00:00 8.8 7 Sudeste 12 Sur 0 -- -- 89
2020-03-29 06:00:00 9.5 4 Sudeste 6 Sur 0 -- -- 88
2020-03-29 05:00:00 9.6 5 Sudeste 13 Sudeste 0 -- -- 86
2020-03-29 03:00:00 10.7 8 Sudeste 11 Sudeste 0 -- -- 87
2020-03-29 01:00:00 11.9 5 Sudeste 8 Sudoeste 0 -- -- 84
2020-03-29 00:00:00 12.5 4 Sur 18 Sur 0 -- -- 80
2020-03-28 23:00:00 12.8 0 Calma 6 Noroeste 0 -- -- 75
2020-03-28 22:00:00 13.3 4 Norte 10 Nordeste 0 -- -- 69
2020-03-28 21:00:00 13.8 7 Norte 9 Norte 0 -- -- 67
2020-03-28 20:00:00 14.8 6 Norte 9 Norte 0 -- -- 65
2020-03-28 19:00:00 16.1 6 Norte 11 Norte 0 -- -- 62
2020-03-28 18:00:00 17 5 Norte 13 Noroeste 0 -- -- 56
2020-03-28 17:00:00 17.9 2 Sudoeste 21 Nordeste 0 -- -- 53
2020-03-28 16:00:00 17.5 6 Sudeste 14 Este 0 -- -- 55
2020-03-28 15:00:00 16.5 9 Nordeste 22 Nordeste 0 -- -- 61
2020-03-28 14:00:00 14.7 14 Norte 22 Norte 0 -- -- 66
2020-03-28 13:00:00 15.8 10 Noroeste 19 Norte 0 -- -- 63
2020-03-28 12:00:00 13.8 7 Este 16 Nordeste 0 -- -- 65
2020-03-28 11:00:00 11.3 9 Nordeste 18 Este 0 -- -- 70
2020-03-28 10:00:00 9.9 11 Nordeste 14 Nordeste 0 -- -- 73
2020-03-28 09:00:00 7.4 7 Nordeste 10 Nordeste 0 -- -- 83
2020-03-28 08:00:00 4.2 8 Nordeste 15 Nordeste 0 -- -- 91
2020-03-28 07:00:00 4.3 11 Nordeste 15 Nordeste 0 -- -- 90
2020-03-28 06:00:00 4.4 9 Nordeste 14 Nordeste 0 -- -- 90
2020-03-28 05:00:00 5.5 10 Nordeste 15 Nordeste 0 -- -- 85
2020-03-28 04:00:00 5.9 10 Nordeste 14 Nordeste 0 -- -- 84
2020-03-28 03:00:00 6.7 6 Nordeste 11 Nordeste 0 -- -- 78
2020-03-28 02:00:00 8.3 3 Sudeste 17 Este 0 -- -- 71
2020-03-28 01:00:00 8.5 10 Nordeste 14 Este 0 -- -- 73
2020-03-28 00:00:00 9.1 8 Este 12 Este 0 -- -- 78
2020-03-27 23:00:00 9.7 5 Sudeste 16 Nordeste 0 -- -- 78
2020-03-27 22:00:00 11.1 11 Nordeste 15 Este 0 -- -- 72
2020-03-27 21:00:00 11.1 10 Este 15 Este 0 -- -- 71
2020-03-27 20:00:00 13 10 Nordeste 17 Nordeste 0 -- -- 64
2020-03-27 19:00:00 14.9 10 Este 22 Este 0 -- -- 58
2020-03-27 18:00:00 15.3 13 Nordeste 27 Nordeste 0 -- -- 57
2020-03-27 17:00:00 15.4 14 Nordeste 29 Norte 0 -- -- 59
2020-03-27 16:00:00 15.6 9 Nordeste 17 Norte 0 -- -- 62
2020-03-27 15:00:00 15.3 7 Sudoeste 14 Sudoeste 0 -- -- 66
2020-03-27 14:00:00 14.4 9 Sur 14 Sudoeste 0 -- -- 66
2020-03-27 13:00:00 12.5 3 Sur 11 Oeste 0 -- -- 72
2020-03-27 12:00:00 12.2 5 Sur 13 Sur 0 -- -- 72
2020-03-27 11:00:00 10.6 5 Sudoeste 9 Sudoeste 0 -- -- 77
2020-03-27 10:00:00 9.7 4 Norte 10 Norte 0 -- -- 86
2020-03-27 09:00:00 8.6 7 Noroeste 12 Noroeste 0 -- -- 90
2020-03-27 08:00:00 7.3 0 Calma 8 Este 0 -- -- 96
2020-03-27 07:00:00 7 3 Este 6 Sudeste 0 -- -- 96
2020-03-27 06:00:00 6.7 0 Calma 4 Noroeste 0 -- -- 97
2020-03-27 05:00:00 6.4 2 Noroeste 13 Oeste 0 -- -- 95
2020-03-27 04:00:00 7 7 Oeste 14 Oeste 0 -- -- 94
2020-03-27 03:00:00 7.3 6 Oeste 10 Oeste 0 -- -- 93
2020-03-27 02:00:00 7.7 7 Noroeste 18 Noroeste 0 -- -- 91
2020-03-27 01:00:00 8.5 8 Noroeste 14 Noroeste 0 -- -- 89
2020-03-27 00:00:00 9.3 8 Noroeste 19 Noroeste 0 -- -- 86
2020-03-26 23:00:00 10.5 12 Noroeste 19 Noroeste 0 -- -- 81
2020-03-26 22:00:00 11.8 12 Noroeste 21 Noroeste 0 -- -- 77
2020-03-26 21:00:00 12.6 9 Noroeste 21 Noroeste 0 -- -- 74
2020-03-26 20:00:00 14.4 13 Noroeste 28 Oeste 0 -- -- 66
2020-03-26 19:00:00 16.8 23 Noroeste 35 Oeste 0 -- -- 55
2020-03-26 18:00:00 18.3 23 Noroeste 37 Oeste 0 -- -- 53
2020-03-26 17:00:00 19.2 23 Oeste 40 Oeste 0 -- -- 54
2020-03-26 16:00:00 19.1 22 Noroeste 35 Oeste 0 -- -- 50
2020-03-26 15:00:00 19 21 Noroeste 33 Oeste 0 -- -- 56
2020-03-26 14:00:00 18.3 19 Noroeste 31 Noroeste 0 -- -- 58
2020-03-26 13:00:00 17.4 10 Oeste 18 Oeste 0 -- -- 64
2020-03-26 12:00:00 15.6 8 Oeste 13 Oeste 0 -- -- 72
2020-03-26 11:00:00 13.3 6 Sudoeste 13 Sudoeste 0 -- -- 80
2020-03-26 10:00:00 11 4 Oeste 12 Oeste 0 -- -- 85
2020-03-26 09:00:00 9.4 4 Noroeste 8 Noroeste 0 -- -- 93
2020-03-26 08:00:00 7.6 4 Noroeste 10 Noroeste 0 -- -- 97
2020-03-26 07:00:00 7.8 4 Noroeste 7 Noroeste 0 -- -- 96
2020-03-26 06:00:00 8.4 0 Calma 4 Nordeste 0 -- -- 96
2020-03-26 05:00:00 8.8 2 Noroeste 4 Noroeste 0 -- -- 95
2020-03-26 04:00:00 9.4 0 Calma 10 Noroeste 0 -- -- 93
2020-03-26 03:00:00 10.2 8 Noroeste 13 Noroeste 0 -- -- 90
2020-03-26 02:00:00 11.5 5 Oeste 17 Oeste 0 -- -- 87
2020-03-26 01:00:00 12.4 7 Oeste 10 Oeste 0 -- -- 86
2020-03-26 00:00:00 13.1 6 Noroeste 10 Noroeste 0 -- -- 85
2020-03-25 23:00:00 13.7 4 Sur 9 Sudoeste 0 -- -- 91
2020-03-25 22:00:00 14.6 3 Sudoeste 14 Sudoeste 0 -- -- 89
2020-03-25 21:00:00 15.6 11 Sudoeste 16 Sudoeste 0 -- -- 84
2020-03-25 20:00:00 17.1 7 Sudoeste 9 Sudoeste 0 -- -- 69
2020-03-25 19:00:00 18.5 7 Oeste 12 Oeste 0 -- -- 59
2020-03-25 18:00:00 20.4 5 Oeste 13 Oeste 0 -- -- 53
2020-03-25 17:00:00 20.5 8 Oeste 13 Noroeste 0 -- -- 56
2020-03-25 16:00:00 20 8 Oeste 14 Noroeste 0 -- -- 59
2020-03-25 15:00:00 19.2 7 Oeste 13 Oeste 0 -- -- 64
2020-03-25 14:00:00 18.3 8 Oeste 14 Sudoeste 0 -- -- 66
2020-03-25 13:00:00 17.5 9 Noroeste 13 Oeste 0 -- -- 70
2020-03-25 12:00:00 17 7 Oeste 13 Oeste 0 -- -- 73
2020-03-25 11:00:00 15.7 5 Sudoeste 9 Nordeste 0 -- -- 75
2020-03-25 10:00:00 12.1 6 Nordeste 10 Nordeste 0 -- -- 84
2020-03-25 09:00:00 11.4 0 Calma 10 Este 0 -- -- 85
2020-03-25 08:00:00 9.6 5 Nordeste 12 Nordeste 0 -- -- 89
2020-03-25 07:00:00 9.5 4 Nordeste 10 Nordeste 0 -- -- 89
2020-03-25 06:00:00 9.8 4 Nordeste 14 Este 0 -- -- 87
2020-03-25 05:00:00 10.3 9 Nordeste 21 Nordeste 0 -- -- 84
2020-03-25 04:00:00 10.1 14 Nordeste 22 Nordeste 0 -- -- 84
2020-03-25 03:00:00 9.9 12 Nordeste 20 Nordeste 0 -- -- 85
2020-03-25 02:00:00 10.7 12 Nordeste 22 Nordeste 0 -- -- 82
2020-03-25 01:00:00 12.3 10 Nordeste 15 Nordeste 0 -- -- 74
2020-03-25 00:00:00 13.7 8 Nordeste 24 Este 0 -- -- 69
2020-03-24 23:00:00 15.3 14 Este 26 Este 0 -- -- 64
2020-03-24 22:00:00 15.7 13 Nordeste 23 Este 0 -- -- 63
2020-03-24 21:00:00 16.2 13 Nordeste 25 Nordeste 0 -- -- 62
2020-03-24 20:00:00 16.3 13 Nordeste 27 Nordeste 0 -- -- 62
2020-03-24 19:00:00 16.8 16 Nordeste 35 Nordeste 0 -- -- 61
2020-03-24 18:00:00 17.3 21 Nordeste 39 Nordeste 0 -- -- 59
2020-03-24 17:00:00 17.8 21 Nordeste 40 Nordeste 0 -- -- 58
2020-03-24 16:00:00 18.7 22 Nordeste 43 Este 0 -- -- 56
2020-03-24 15:00:00 18.3 27 Nordeste 45 Nordeste 0 -- -- 56
2020-03-24 14:00:00 18.5 24 Este 47 Este 0 -- -- 52
2020-03-24 13:00:00 18.3 28 Este 46 Este 0 -- -- 53
2020-03-24 12:00:00 16.5 25 Este 48 Este 0 -- -- 63
2020-03-24 11:00:00 15.1 21 Este 41 Este 0 -- -- 71
2020-03-24 10:00:00 13.3 10 Nordeste 27 Norte 0 -- -- 80
2020-03-24 09:00:00 11.1 16 Nordeste 27 Norte 0 -- -- 89
2020-03-24 08:00:00 9.1 17 Nordeste 24 Nordeste 0 -- -- 93
2020-03-24 07:00:00 8 11 Norte 17 Norte 0 -- -- 95
2020-03-24 06:00:00 8.8 8 Norte 14 Nordeste 0 -- -- 94
2020-03-24 05:00:00 9.5 12 Nordeste 21 Norte 0 -- -- 93
2020-03-24 04:00:00 9.5 14 Nordeste 23 Nordeste 0 -- -- 93
2020-03-24 03:00:00 9.6 12 Nordeste 20 Nordeste 0 -- -- 92
2020-03-24 02:00:00 9.5 9 Nordeste 14 Norte 0 -- -- 91
2020-03-24 01:00:00 8.8 6 Nordeste 9 Este 0 -- -- 92
2020-03-24 00:00:00 9.7 5 Este 20 Sudeste 0.2 -- -- 89
2020-03-23 23:00:00 9.9 4 Nordeste 13 Nordeste 0 -- -- 86
2020-03-23 22:00:00 10.8 0 Calma 10 Nordeste 0 -- -- 78
2020-03-23 21:00:00 12.3 8 Este 15 Nordeste 0 -- -- 70
2020-03-23 20:00:00 12.8 10 Nordeste 27 Este 0 -- -- 69
2020-03-23 19:00:00 15.4 16 Este 33 Nordeste 0 -- -- 60
2020-03-23 18:00:00 16.9 17 Nordeste 30 Norte 0 -- -- 57
2020-03-23 17:00:00 15.8 23 Norte 40 Norte 0 -- -- 64
2020-03-23 16:00:00 17.6 15 Nordeste 32 Nordeste 0 -- -- 49
2020-03-23 15:00:00 17.2 16 Nordeste 35 Este 0 -- -- 56
2020-03-23 14:00:00 17 19 Este 34 Este 0 -- -- 56
2020-03-23 13:00:00 16.4 19 Este 32 Este 0 -- -- 60
2020-03-23 12:00:00 15.4 18 Este 31 Este 0 -- -- 66
2020-03-23 11:00:00 14.6 14 Este 28 Nordeste 0 -- -- 71
2020-03-23 10:00:00 12.4 10 Nordeste 22 Norte 0 -- -- 89
2020-03-23 09:00:00 10 12 Nordeste 19 Norte 0 -- -- 98
2020-03-23 08:00:00 7.9 7 Nordeste 14 Nordeste 0 -- -- 98
2020-03-23 07:00:00 7.7 3 Nordeste 8 Este 0 -- -- 97
2020-03-23 06:00:00 8 0 Calma 11 Nordeste 0 -- -- 95
2020-03-23 05:00:00 8.2 3 Noroeste 8 Nordeste 0 -- -- 93
2020-03-23 04:00:00 9 0 Calma 5 Este 0 -- -- 92
2020-03-23 03:00:00 9.8 0 Calma 4 Norte 0 -- -- 91
2020-03-23 02:00:00 9.8 0 Calma 6 Este 0 -- -- 89
2020-03-23 01:00:00 10.2 0 Calma 8 Oeste 0 -- -- 92
2020-03-23 00:00:00 10.4 3 Oeste 7 Oeste 0 -- -- 89
2020-03-22 23:00:00 10.6 3 Norte 8 Noroeste 0 -- -- 86
2020-03-22 22:00:00 11.2 4 Sudeste 9 Norte 0 -- -- 79
2020-03-22 21:00:00 12.1 8 Nordeste 12 Norte 0 -- -- 75
2020-03-22 20:00:00 13.5 10 Norte 18 Norte 0 -- -- 68
2020-03-22 19:00:00 15.6 9 Norte 20 Norte 0 -- -- 60
2020-03-22 18:00:00 16.5 12 Norte 23 Norte 0 -- -- 54
2020-03-22 17:00:00 16.5 12 Nordeste 21 Nordeste 0 -- -- 50
2020-03-22 16:00:00 16.6 12 Norte 23 Nordeste 0 -- -- 53
2020-03-22 15:00:00 15.6 10 Norte 28 Nordeste 0 -- -- 57
2020-03-22 14:00:00 15.4 15 Nordeste 27 Norte 0 -- -- 66
2020-03-22 13:00:00 14.6 15 Norte 30 Norte 0 -- -- 66
2020-03-22 12:00:00 13.6 14 Nordeste 25 Norte 0 -- -- 68
2020-03-22 11:00:00 12.5 6 Este 21 Este 0 -- -- 76
2020-03-22 10:00:00 11.3 8 Norte 15 Nordeste 0 -- -- 87
2020-03-22 09:00:00 9 12 Nordeste 20 Nordeste 0 -- -- 96
2020-03-22 08:00:00 8 12 Nordeste 19 Nordeste 0 -- -- 98
2020-03-22 07:00:00 7.9 12 Nordeste 18 Nordeste 0 -- -- 99
2020-03-22 06:00:00 7.8 8 Nordeste 13 Nordeste 0 -- -- 98
2020-03-22 05:00:00 8.6 9 Nordeste 13 Nordeste 0 -- -- 98
2020-03-22 04:00:00 9.2 8 Nordeste 14 Norte 0 -- -- 97
2020-03-22 03:00:00 9 5 Norte 11 Nordeste 0 -- -- 96
2020-03-22 02:00:00 9.3 7 Nordeste 10 Norte 0 -- -- 96
2020-03-22 01:00:00 9.5 4 Norte 6 Noroeste 0 -- -- 97
2020-03-22 00:00:00 9.7 3 Sudeste 7 Nordeste 0.2 -- -- 97
2020-03-21 23:00:00 9.8 3 Norte 6 Norte 0 -- -- 96
2020-03-21 22:00:00 9.6 0 Calma 12 Nordeste 0 -- -- 95
2020-03-21 21:00:00 9.4 8 Nordeste 13 Norte 0 -- -- 95
2020-03-21 20:00:00 9.5 4 Nordeste 9 Este 0 -- -- 91
2020-03-21 19:00:00 10.3 7 Sudeste 21 Nordeste 0 -- -- 88
2020-03-21 18:00:00 10 15 Norte 26 Norte 0 -- -- 90
2020-03-21 17:00:00 12 12 Oeste 24 Noroeste 0.4 -- -- 80
2020-03-21 16:00:00 13.5 17 Noroeste 28 Oeste 0 -- -- 75
2020-03-21 15:00:00 13.5 6 Nordeste 23 Sur 0 -- -- 76
2020-03-21 14:00:00 14.7 12 Sur 32 Sur 0 -- -- 66
2020-03-21 13:00:00 13.6 17 Sur 27 Sur 0 -- -- 71
2020-03-21 12:00:00 13.2 9 Sur 24 Sur 0 -- -- 75
2020-03-21 11:00:00 12.2 18 Sur 24 Sudoeste 0 -- -- 81
2020-03-21 10:00:00 11.2 9 Sur 17 Sudeste 0 -- -- 87
2020-03-21 09:00:00 8.9 8 Sur 20 Sur 0 -- -- 97
2020-03-21 08:00:00 8.7 14 Sur 20 Sur 0 -- -- 96
2020-03-21 07:00:00 9.1 16 Sudoeste 22 Sudoeste 0 -- -- 95
2020-03-21 06:00:00 9.1 15 Sur 21 Sur 0 -- -- 96
2020-03-21 05:00:00 9.2 9 Sudoeste 19 Oeste 0 -- -- 95
2020-03-21 04:00:00 9.4 14 Oeste 26 Oeste 0 -- -- 94
2020-03-21 03:00:00 9.8 12 Oeste 19 Oeste 0 -- -- 94
2020-03-21 02:00:00 10.1 10 Sudoeste 15 Oeste -- -- -- 96
2020-03-21 01:00:00 9.8 7 Oeste 14 Oeste 0.2 -- -- 97
2020-03-21 00:00:00 9.9 6 Noroeste 19 Oeste 1.6 -- -- 97
2020-03-20 23:00:00 9.9 6 Noroeste 17 Oeste 2.8 -- -- 97
2020-03-20 22:00:00 10.4 10 Noroeste 21 Noroeste 1.8 -- -- 98
2020-03-20 21:00:00 11.2 3 Norte 7 Nordeste 5.2 -- -- 98
2020-03-20 20:00:00 11.2 3 Nordeste 9 Nordeste 5.8 -- -- 98
2020-03-20 19:00:00 11.4 3 Este 6 Oeste 5.8 -- -- 97
2020-03-20 18:00:00 11.6 3 Noroeste 14 Oeste 1.8 -- -- 95
2020-03-20 17:00:00 11.7 15 Oeste 34 Oeste 3.6 -- -- 93
2020-03-20 16:00:00 13.7 15 Sur 21 Sur 1.8 -- -- 91
2020-03-20 15:00:00 14.7 8 Sur 14 Sudoeste 0 -- -- 86
2020-03-20 14:00:00 15 9 Sudoeste 18 Sudoeste 0 -- -- 81
2020-03-20 13:00:00 14.9 12 Sudoeste 18 Sudoeste 0.2 -- -- 83
2020-03-20 12:00:00 14.4 9 Sudoeste 19 Sudoeste 0 -- -- 87
2020-03-20 11:00:00 13.5 13 Sudoeste 19 Sudoeste 0 -- -- 92
2020-03-20 10:00:00 13.1 12 Sudoeste 17 Sur 0 -- -- 92
2020-03-20 09:00:00 13.1 11 Sudoeste 17 Sudoeste 0 -- -- 91
2020-03-20 08:00:00 13.1 11 Sur 17 Sur 0 -- -- 90
2020-03-20 07:00:00 13 8 Sur 17 Sur 0 -- -- 90
2020-03-20 06:00:00 12.9 11 Sur 19 Sudoeste 0 -- -- 89
2020-03-20 05:00:00 13.4 9 Sur 23 Sur 0 -- -- 88
2020-03-20 04:00:00 13.9 11 Sur 16 Sur 0 -- -- 85
2020-03-20 03:00:00 14.4 9 Sur 15 Sur 0 -- -- 83
2020-03-20 02:00:00 14.6 8 Sur 13 Sur 0 -- -- 81
2020-03-20 01:00:00 14.6 4 Sudeste 14 Este 0 -- -- 76
2020-03-20 00:00:00 14.7 8 Este 21 Nordeste 0 -- -- 72
2020-03-19 23:00:00 15.7 14 Nordeste 21 Nordeste 0 -- -- 67
2020-03-19 22:00:00 16.6 3 Este 13 Sudeste 0 -- -- 66
2020-03-19 21:00:00 17.1 8 Nordeste 11 Norte 0 -- -- 62
2020-03-19 20:00:00 17.5 9 Norte 10 Norte 0 -- -- 61
2020-03-19 19:00:00 20.1 4 Norte 12 Norte 0 -- -- 54
2020-03-19 18:00:00 20.8 10 Norte 16 Norte 0 -- -- 49
2020-03-19 17:00:00 20.9 8 Norte 20 Norte 0 -- -- 49
2020-03-19 16:00:00 20.1 8 Oeste 15 Sudoeste 0 -- -- 58
2020-03-19 15:00:00 20.7 8 Sudeste 24 Este 0 -- -- 51
2020-03-19 14:00:00 20.5 14 Nordeste 24 Nordeste 0 -- -- 52
2020-03-19 13:00:00 19.3 10 Sur 24 Norte 0 -- -- 60
2020-03-19 12:00:00 18 16 Norte 25 Este 0 -- -- 63
2020-03-19 11:00:00 16.9 10 Nordeste 17 Nordeste 0 -- -- 66
2020-03-19 10:00:00 13.2 11 Nordeste 21 Nordeste 0 -- -- 79
2020-03-19 09:00:00 10.4 13 Nordeste 31 Nordeste 0 -- -- 86
2020-03-19 08:00:00 9.3 17 Nordeste 22 Norte 0 -- -- 90
2020-03-19 07:00:00 9.3 2 Este 11 Este 0 -- -- 90
2020-03-19 06:00:00 9.6 2 Este 8 Este 0 -- -- 88
2020-03-19 05:00:00 10.1 5 Este 9 Sudeste 0 -- -- 86
2020-03-19 04:00:00 10.9 6 Sudeste 15 Nordeste 0 -- -- 84
2020-03-19 03:00:00 12.1 13 Nordeste 17 Nordeste 0 -- -- 80
2020-03-19 02:00:00 12.5 4 Norte 8 Nordeste 0 -- -- 79
2020-03-19 01:00:00 14.6 12 Nordeste 26 Nordeste 0 -- -- 69
2020-03-19 00:00:00 14.4 9 Nordeste 18 Nordeste 0 -- -- 72
2020-03-18 23:00:00 15.3 14 Nordeste 26 Nordeste 0 -- -- 70
2020-03-18 22:00:00 15.7 15 Nordeste 27 Norte 0 -- -- 69
2020-03-18 21:00:00 17.9 17 Nordeste 26 Nordeste 0 -- -- 57
2020-03-18 20:00:00 18.5 10 Este 17 Este 0 -- -- 55
2020-03-18 19:00:00 20.6 9 Nordeste 19 Nordeste 0 -- -- 50
2020-03-18 18:00:00 21.6 16 Este 32 Este 0 -- -- 46
2020-03-18 17:00:00 22.1 21 Nordeste 34 Este 0 -- -- 46
2020-03-18 16:00:00 21.8 15 Este 33 Nordeste 0 -- -- 47
2020-03-18 15:00:00 21.4 21 Este 36 Este 0 -- -- 49
2020-03-18 14:00:00 20.6 20 Este 35 Este 0 -- -- 51
2020-03-18 13:00:00 19.1 20 Este 36 Nordeste 0 -- -- 56
2020-03-18 12:00:00 17.5 24 Nordeste 39 Este 0 -- -- 59
2020-03-18 11:00:00 16.1 16 Nordeste 33 Este 0 -- -- 66
2020-03-18 10:00:00 15.1 15 Nordeste 35 Este 0 -- -- 67
2020-03-18 09:00:00 12.7 19 Nordeste 32 Nordeste 0 -- -- 76
2020-03-18 08:00:00 11.8 17 Nordeste 27 Nordeste 0 -- -- 80
2020-03-18 07:00:00 12.9 14 Nordeste 25 Nordeste 0 -- -- 77
2020-03-18 06:00:00 11.8 10 Nordeste 22 Nordeste 0 -- -- 85
2020-03-18 05:00:00 10.9 15 Norte 23 Norte 0 -- -- 86
2020-03-18 04:00:00 10.4 16 Nordeste 23 Norte 0 -- -- 84
2020-03-18 03:00:00 10.5 9 Nordeste 15 Nordeste 0 -- -- 79
2020-03-18 02:00:00 12.6 11 Nordeste 18 Nordeste 0 -- -- 73
2020-03-18 01:00:00 12.4 12 Nordeste 26 Nordeste 0 -- -- 63
2020-03-18 00:00:00 12.2 13 Nordeste 23 Nordeste 0 -- -- 61
2020-03-17 23:00:00 11.8 15 Nordeste 23 Nordeste 0 -- -- 61
2020-03-17 22:00:00 13 9 Nordeste 21 Este 0 -- -- 57
2020-03-17 21:00:00 14.6 12 Nordeste 18 Nordeste 0 -- -- 47
2020-03-17 20:00:00 15.1 9 Nordeste 29 Este 0 -- -- 43
2020-03-17 19:00:00 17.1 20 Este 33 Este 0 -- -- 39
2020-03-17 18:00:00 17.2 17 Este 33 Este 0 -- -- 42
2020-03-17 17:00:00 17.4 17 Este 32 Este 0 -- -- 45
2020-03-17 16:00:00 17.4 23 Sudeste 38 Este 0 -- -- 45
2020-03-17 15:00:00 15.1 16 Sudeste 39 Sudeste 0 -- -- 52
2020-03-17 14:00:00 15.3 25 Sudeste 46 Este 0 -- -- 55
2020-03-17 13:00:00 14 29 Este 44 Este 0 -- -- 58
2020-03-17 12:00:00 12.5 19 Este 45 Este 0 -- -- 64
2020-03-17 11:00:00 10 25 Este 43 Nordeste 0 -- -- 74
2020-03-17 10:00:00 9.4 22 Nordeste 43 Nordeste 0.2 -- -- 79
2020-03-17 09:00:00 7.5 15 Nordeste 28 Nordeste 0 -- -- 86
2020-03-17 08:00:00 5.8 15 Nordeste 30 Nordeste 0 -- -- 90
2020-03-17 07:00:00 5.8 17 Nordeste 26 Nordeste 0 -- -- 90
2020-03-17 06:00:00 6 15 Nordeste 26 Norte 0 -- -- 90
2020-03-17 05:00:00 5.9 15 Nordeste 26 Norte 0 -- -- 91
2020-03-17 04:00:00 5.7 15 Nordeste 22 Nordeste 0 -- -- 93
2020-03-17 03:00:00 6.4 8 Nordeste 22 Nordeste 0 -- -- 92
2020-03-17 02:00:00 7.4 12 Nordeste 20 Nordeste 0 -- -- 90
2020-03-17 01:00:00 7.7 10 Nordeste 26 Nordeste 0 -- -- 88
2020-03-17 00:00:00 8.5 16 Norte 30 Nordeste 0.2 -- -- 88
2020-03-16 23:00:00 8.5 9 Norte 21 Norte 1.6 -- -- 94
2020-03-16 22:00:00 8.2 8 Norte 29 Este 1.6 -- -- 94
2020-03-16 21:00:00 9.3 15 Nordeste 23 Nordeste 0.6 -- -- 84
2020-03-16 20:00:00 11 4 Norte 23 Norte 0 -- -- 69
2020-03-16 19:00:00 12.1 18 Norte 35 Nordeste 0 -- -- 62
2020-03-16 18:00:00 12.8 15 Nordeste 30 Nordeste 0 -- -- 55
2020-03-16 17:00:00 12.8 13 Nordeste 26 Este 0 -- -- 58
2020-03-16 16:00:00 10.9 18 Nordeste 45 Nordeste 0 -- -- 68
2020-03-16 15:00:00 14 17 Norte 39 Noroeste 0 -- -- 45
2020-03-16 14:00:00 14.7 24 Norte 42 Norte 0 -- -- 44
2020-03-16 13:00:00 13 27 Norte 45 Noroeste 0 -- -- 47
2020-03-16 12:00:00 12.1 26 Norte 44 Norte 0 -- -- 51
2020-03-16 11:00:00 10.6 22 Norte 39 Norte 0 -- -- 56
2020-03-16 10:00:00 9 21 Norte 41 Noroeste 0 -- -- 64
2020-03-16 09:00:00 7.1 21 Noroeste 35 Noroeste 0 -- -- 74
2020-03-16 08:00:00 5.8 15 Norte 35 Norte 0 -- -- 79
2020-03-16 07:00:00 5.5 13 Noroeste 31 Norte 0 -- -- 82
2020-03-16 06:00:00 5.5 18 Noroeste 30 Noroeste 0 -- -- 84
2020-03-16 05:00:00 5.9 17 Noroeste 23 Noroeste 0 -- -- 84
2020-03-16 04:00:00 6.1 16 Noroeste 24 Noroeste 0 -- -- 82
2020-03-16 03:00:00 6 8 Norte 14 Norte 0 -- -- 81
2020-03-16 02:00:00 6.2 5 Norte 19 Norte 0 -- -- 80
2020-03-16 01:00:00 7.6 14 Norte 30 Noroeste 0 -- -- 74
2020-03-16 00:00:00 8.5 17 Norte 36 Norte 0 -- -- 73
2020-03-15 23:00:00 9.5 22 Norte 36 Norte 0 -- -- 70
2020-03-15 22:00:00 10.7 26 Norte 50 Norte 0 -- -- 74
2020-03-15 21:00:00 12.3 28 Norte 51 Noroeste 0 -- -- 75
2020-03-15 20:00:00 15.7 23 Noroeste 36 Noroeste 0 -- -- 58
2020-03-15 19:00:00 17.2 18 Noroeste 36 Noroeste 0 -- -- 58
2020-03-15 18:00:00 18.5 17 Noroeste 33 Oeste 0 -- -- 62
2020-03-15 17:00:00 18.7 24 Noroeste 37 Noroeste 0 -- -- 63
2020-03-15 16:00:00 19.6 15 Oeste 37 Noroeste 0 -- -- 62
2020-03-15 15:00:00 20.8 16 Sudoeste 24 Sudoeste 0 -- -- 62
2020-03-15 14:00:00 19.6 13 Sudoeste 20 Sudoeste 0 -- -- 64
2020-03-15 13:00:00 17.9 13 Sudoeste 21 Sudoeste 0 -- -- 74
2020-03-15 12:00:00 16.1 15 Sudoeste 21 Sudoeste 0 -- -- 80
2020-03-15 11:00:00 12.9 11 Sudoeste 14 Sudoeste 0 -- -- 96
2020-03-15 10:00:00 12.4 8 Sudoeste 11 Sudoeste 0 -- -- 95
2020-03-15 09:00:00 11.4 4 Sur 8 Sur 0 -- -- 96
2020-03-15 08:00:00 10.5 6 Sur 9 Sur 0 -- -- 96
2020-03-15 07:00:00 10.5 7 Sur 10 Sur 0 -- -- 97
2020-03-15 06:00:00 10.2 8 Sudeste 9 Sudeste 0 -- -- 95
2020-03-15 05:00:00 10.9 8 Sur 10 Sudeste 0 -- -- 94
2020-03-15 04:00:00 11.2 7 Sudeste 13 Sudeste 0 -- -- 93
2020-03-15 03:00:00 11.8 7 Sudeste 10 Sudeste 0 -- -- 90
2020-03-15 02:00:00 12.7 7 Sudeste 11 Sur 0 -- -- 88
2020-03-15 01:00:00 13 5 Sur 12 Sudeste 0 -- -- 86
2020-03-15 00:00:00 13.6 8 Sudeste 12 Sudeste 0 -- -- 81
2020-03-14 23:00:00 14.8 8 Este 10 Este 0 -- -- 77
2020-03-14 22:00:00 17 0 Calma 7 Nordeste 0 -- -- 71
2020-03-14 21:00:00 18.3 0 Calma 6 Sudoeste 0 -- -- 68
2020-03-14 20:00:00 19.6 4 Sudoeste 8 Sudoeste 0 -- -- 63
2020-03-14 19:00:00 21.9 4 Sudoeste 8 Sudoeste 0 -- -- 55
2020-03-14 18:00:00 23.1 5 Oeste 10 Oeste 0 -- -- 51
2020-03-14 17:00:00 23 7 Oeste 14 Sudoeste 0 -- -- 50
2020-03-14 16:00:00 22.2 9 Sudoeste 13 Sudoeste 0 -- -- 52
2020-03-14 15:00:00 21.7 7 Oeste 14 Oeste 0 -- -- 57
2020-03-14 14:00:00 20.6 9 Oeste 14 Oeste 0 -- -- 58
2020-03-14 13:00:00 19.5 5 Oeste 10 Oeste 0 -- -- 60
2020-03-14 12:00:00 17.3 6 Oeste 10 Sudoeste 0 -- -- 76
2020-03-14 11:00:00 14 5 Noroeste 10 Norte 0 -- -- 96
2020-03-14 10:00:00 10.9 4 Norte 6 Noroeste 0 -- -- 100
2020-03-14 09:00:00 9 0 Calma 6 Sur 0 -- -- 100
2020-03-14 08:00:00 8.3 5 Este 7 Sudeste 0 -- -- 99
2020-03-14 07:00:00 8.4 3 Norte 5 Norte 0 -- -- 99
2020-03-14 06:00:00 8.5 3 Este 7 Sudeste 0 -- -- 98
2020-03-14 05:00:00 9.1 6 Sudeste 8 Sudeste 0 -- -- 97
2020-03-14 04:00:00 9.8 3 Nordeste 5 Este 0 -- -- 98
2020-03-14 03:00:00 9.7 0 Calma 6 Sur 0 -- -- 96
2020-03-14 02:00:00 11 4 Norte 6 Norte 0 -- -- 96
2020-03-14 01:00:00 11.8 4 Norte 11 Norte 0 -- -- 94
2020-03-14 00:00:00 11.9 0 Calma 5 Norte 0 -- -- 95
2020-03-13 23:00:00 12.7 0 Calma 4 Oeste 0 -- -- 94
2020-03-13 22:00:00 12.8 4 Sudoeste 9 Este 0 -- -- 91
2020-03-13 21:00:00 14 8 Este 10 Este 0 -- -- 86
2020-03-13 20:00:00 15.7 5 Este 6 Este 0 -- -- 80
2020-03-13 19:00:00 17 0 Calma 10 Este 0 -- -- 76
2020-03-13 18:00:00 17.1 3 Norte 10 Nordeste 0 -- -- 74
2020-03-13 17:00:00 16.4 4 Nordeste 12 Nordeste 0 -- -- 77
2020-03-13 16:00:00 14.2 6 Norte 16 Noroeste 0 -- -- 84
2020-03-13 15:00:00 13.8 7 Oeste 15 Oeste 0 -- -- 84
2020-03-13 14:00:00 13.3 3 Sudoeste 12 Sudoeste 0 -- -- 86
2020-03-13 13:00:00 12.4 7 Sudoeste 10 Sudoeste 0 -- -- 88
2020-03-13 12:00:00 11.6 6 Sudoeste 12 Oeste 0 -- -- 91
2020-03-13 11:00:00 11 5 Oeste 15 Oeste 0 -- -- 93
2020-03-13 10:00:00 10.6 0 Calma 11 Oeste 0 -- -- 94
2020-03-13 09:00:00 10.5 3 Noroeste 12 Oeste 0 -- -- 94
2020-03-13 08:00:00 10.4 0 Calma 7 Norte 0 -- -- 95
2020-03-13 07:00:00 10.3 3 Norte 6 Noroeste 0 -- -- 95
2020-03-13 06:00:00 10.2 0 Calma 9 Norte 0 -- -- 97
2020-03-13 05:00:00 9.4 5 Norte 11 Norte 0 -- -- 97
2020-03-13 04:00:00 10.1 4 Noroeste 6 Norte 0 -- -- 96
2020-03-13 03:00:00 10.7 5 Norte 10 Noroeste 0 -- -- 95
2020-03-13 02:00:00 12.2 4 Noroeste 9 Noroeste 0 -- -- 91
2020-03-13 01:00:00 13.3 6 Noroeste 9 Oeste 0 -- -- 90
2020-03-13 00:00:00 14.6 0 Calma 5 Sudeste 0 -- -- 86
2020-03-12 23:00:00 15.7 4 Norte 12 Norte 0 -- -- 83
2020-03-12 22:00:00 16.7 4 Noroeste 7 Noroeste 0 -- -- 76
2020-03-12 21:00:00 17.4 4 Norte 9 Noroeste 0 -- -- 72
2020-03-12 20:00:00 19.1 7 Noroeste 14 Noroeste 0 -- -- 66
2020-03-12 19:00:00 21.3 9 Oeste 14 Oeste 0 -- -- 57
2020-03-12 18:00:00 22.6 9 Sudoeste 15 Sudoeste 0 -- -- 55
2020-03-12 17:00:00 22.5 13 Sudoeste 21 Sudoeste 0 -- -- 55
2020-03-12 16:00:00 22.1 14 Sudoeste 20 Sudoeste 0 -- -- 58
2020-03-12 15:00:00 21.6 15 Sudoeste 23 Sudoeste 0 -- -- 62
2020-03-12 14:00:00 20.3 17 Oeste 26 Oeste 0 -- -- 62
2020-03-12 13:00:00 19 14 Oeste 21 Sudoeste 0 -- -- 70
2020-03-12 12:00:00 16.6 13 Sudoeste 17 Sudoeste 0 -- -- 79
2020-03-12 11:00:00 14.8 6 Oeste 8 Oeste 0 -- -- 87
2020-03-12 10:00:00 13.5 3 Oeste 5 Sudoeste 0 -- -- 92
2020-03-12 09:00:00 11.9 0 Calma 5 Oeste 0 -- -- 95
2020-03-12 08:00:00 11.1 2 Norte 5 Noroeste 0 -- -- 96
2020-03-12 07:00:00 11.6 3 Sudeste 7 Este 0 -- -- 91
2020-03-12 06:00:00 12.1 0 Calma 5 Nordeste 0 -- -- 96
2020-03-12 05:00:00 12.5 0 Calma 9 Nordeste 0 -- -- 95
2020-03-12 04:00:00 13.4 8 Nordeste 10 Norte 0 -- -- 93
2020-03-12 03:00:00 15 2 Este 3 Sudeste 0 -- -- 88
2020-03-12 02:00:00 14.8 0 Calma 8 Sur 0 -- -- 89
2020-03-12 01:00:00 16.4 8 Sur 10 Sur 0 -- -- 81
2020-03-12 00:00:00 16.1 0 Calma 6 Este 0 -- -- 81
2020-03-11 23:00:00 17.6 3 Este 5 Este 0 -- -- 76
2020-03-11 22:00:00 18.4 0 Calma 4 Norte 0 -- -- 73
2020-03-11 21:00:00 19.3 0 Calma 10 Nordeste 0 -- -- 70
2020-03-11 20:00:00 20.3 4 Nordeste 11 Nordeste 0 -- -- 68
2020-03-11 19:00:00 21.8 9 Nordeste 21 Nordeste 0 -- -- 61
2020-03-11 18:00:00 22.7 16 Nordeste 26 Nordeste 0 -- -- 57
2020-03-11 17:00:00 23.3 12 Norte 22 Norte 0 -- -- 56
2020-03-11 16:00:00 23 11 Norte 21 Norte 0 -- -- 57
2020-03-11 15:00:00 22.9 13 Norte 23 Norte 0 -- -- 58
2020-03-11 14:00:00 22.4 14 Norte 22 Norte 0 -- -- 59
2020-03-11 13:00:00 20.4 13 Norte 19 Norte 0 -- -- 60
2020-03-11 12:00:00 20 8 Norte 12 Norte 0 -- -- 65
2020-03-11 11:00:00 15.9 4 Norte 8 Norte 0 -- -- 74
2020-03-11 10:00:00 13.1 5 Norte 9 Norte 0 -- -- 81
2020-03-11 09:00:00 10.5 5 Nordeste 9 Nordeste 0 -- -- 90
2020-03-11 08:00:00 8.9 2 Noroeste 4 Norte 0 -- -- 92
2020-03-11 07:00:00 9.2 0 Calma 4 Sudoeste 0 -- -- 92
2020-03-11 06:00:00 10.1 0 Calma 8 Nordeste 0 -- -- 88
2020-03-11 05:00:00 10.6 0 Calma 5 Este 0 -- -- 89
2020-03-11 04:00:00 10.7 0 Calma 5 Sudoeste 0 -- -- 85
2020-03-11 03:00:00 11.8 0 Calma 6 Norte 0 -- -- 82
2020-03-11 02:00:00 13.5 3 Nordeste 9 Nordeste 0 -- -- 75
2020-03-11 01:00:00 13.8 5 Nordeste 9 Nordeste 0 -- -- 78
2020-03-11 00:00:00 15 0 Calma 8 Norte 0 -- -- 69
2020-03-10 23:00:00 15.7 3 Oeste 14 Nordeste 0 -- -- 68
2020-03-10 22:00:00 18.2 12 Nordeste 17 Norte 0 -- -- 54
2020-03-10 21:00:00 20.4 10 Nordeste 15 Nordeste 0 -- -- 46
2020-03-10 20:00:00 20.5 12 Nordeste 15 Nordeste 0 -- -- 47
2020-03-10 19:00:00 23.5 8 Norte 17 Nordeste 0 -- -- 45
2020-03-10 18:00:00 24.8 10 Norte 18 Norte 0 -- -- 42
2020-03-10 17:00:00 25.4 11 Norte 19 Norte 0 -- -- 40
2020-03-10 16:00:00 25 10 Norte 19 Norte 0 -- -- 44
2020-03-10 15:00:00 24.2 11 Norte 21 Norte 0 -- -- 45
2020-03-10 14:00:00 22.3 9 Nordeste 18 Norte 0 -- -- 50
2020-03-10 13:00:00 20.3 11 Norte 17 Norte 0 -- -- 54
2020-03-10 12:00:00 18.6 6 Este 12 Este 0 -- -- 57
2020-03-10 11:00:00 15.3 3 Noroeste 10 Norte 0 -- -- 75
2020-03-10 10:00:00 12.2 5 Norte 12 Norte 0 -- -- 83
2020-03-10 09:00:00 8.7 3 Norte 5 Norte 0 -- -- 93
2020-03-10 08:00:00 7.3 0 Calma 6 Norte 0 -- -- 95
2020-03-10 07:00:00 8.4 2 Nordeste 14 Este 0 -- -- 91
2020-03-10 06:00:00 8.9 10 Nordeste 19 Nordeste 0 -- -- 91
2020-03-10 05:00:00 7.9 6 Nordeste 12 Este 0 -- -- 94
2020-03-10 04:00:00 8.7 3 Este 6 Este 0 -- -- 93
2020-03-10 03:00:00 9.2 3 Noroeste 7 Noroeste 0 -- -- 90
2020-03-10 02:00:00 9.8 0 Calma 11 Nordeste 0 -- -- 85
2020-03-10 01:00:00 10.7 4 Este 20 Norte 0 -- -- 82
2020-03-10 00:00:00 12.2 9 Norte 28 Norte 0 -- -- 77